sensor_id;sensor_type;location;lat;lon;timestamp;P1;durP1;ratioP1;P2;durP2;ratioP2
16634;SDS011;8431;52.458;9.998;2023-04-03T00:01:44;2.63;;;1.40;;
16634;SDS011;8431;52.458;9.998;2023-04-03T00:04:11;5.35;;;1.45;;
16634;SDS011;8431;52.458;9.998;2023-04-03T00:06:38;3.72;;;1.17;;
16634;SDS011;8431;52.458;9.998;2023-04-03T00:09:05;1.52;;;1.10;;
16634;SDS011;8431;52.458;9.998;2023-04-03T00:11:32;4.55;;;1.42;;
16634;SDS011;8431;52.458;9.998;2023-04-03T00:13:59;4.22;;;1.27;;
16634;SDS011;8431;52.458;9.998;2023-04-03T00:16:27;6.22;;;1.38;;
16634;SDS011;8431;52.458;9.998;2023-04-03T00:18:54;3.33;;;1.20;;
16634;SDS011;8431;52.458;9.998;2023-04-03T00:21:21;7.32;;;1.40;;
16634;SDS011;8431;52.458;9.998;2023-04-03T00:23:48;3.22;;;1.48;;
16634;SDS011;8431;52.458;9.998;2023-04-03T00:26:16;3.35;;;0.85;;
16634;SDS011;8431;52.458;9.998;2023-04-03T00:28:42;5.95;;;1.38;;
16634;SDS011;8431;52.458;9.998;2023-04-03T00:31:09;3.35;;;1.30;;
16634;SDS011;8431;52.458;9.998;2023-04-03T00:33:38;5.63;;;1.63;;
16634;SDS011;8431;52.458;9.998;2023-04-03T00:36:05;2.88;;;1.25;;
16634;SDS011;8431;52.458;9.998;2023-04-03T00:38:34;4.00;;;1.38;;
16634;SDS011;8431;52.458;9.998;2023-04-03T00:41:02;9.48;;;1.98;;
16634;SDS011;8431;52.458;9.998;2023-04-03T00:43:29;4.68;;;1.80;;
16634;SDS011;8431;52.458;9.998;2023-04-03T00:45:57;3.03;;;1.20;;
16634;SDS011;8431;52.458;9.998;2023-04-03T00:48:26;3.05;;;1.05;;
16634;SDS011;8431;52.458;9.998;2023-04-03T00:50:57;3.17;;;1.38;;
16634;SDS011;8431;52.458;9.998;2023-04-03T00:53:26;4.82;;;1.38;;
16634;SDS011;8431;52.458;9.998;2023-04-03T00:55:56;4.40;;;1.48;;
16634;SDS011;8431;52.458;9.998;2023-04-03T00:58:26;4.70;;;1.42;;
16634;SDS011;8431;52.458;9.998;2023-04-03T01:00:59;7.75;;;1.33;;
16634;SDS011;8431;52.458;9.998;2023-04-03T01:03:32;2.58;;;1.23;;
16634;SDS011;8431;52.458;9.998;2023-04-03T01:06:01;3.60;;;1.15;;
16634;SDS011;8431;52.458;9.998;2023-04-03T01:08:29;7.53;;;1.65;;
16634;SDS011;8431;52.458;9.998;2023-04-03T01:10:59;6.53;;;1.13;;
16634;SDS011;8431;52.458;9.998;2023-04-03T01:13:27;6.07;;;1.35;;
16634;SDS011;8431;52.458;9.998;2023-04-03T01:15:56;3.83;;;1.20;;
16634;SDS011;8431;52.458;9.998;2023-04-03T01:18:26;3.42;;;1.42;;
16634;SDS011;8431;52.458;9.998;2023-04-03T01:24:18;6.32;;;1.30;;
16634;SDS011;8431;52.458;9.998;2023-04-03T01:26:51;1.60;;;1.00;;
16634;SDS011;8431;52.458;9.998;2023-04-03T01:29:18;4.55;;;1.02;;
16634;SDS011;8431;52.458;9.998;2023-04-03T01:31:48;2.53;;;1.35;;
16634;SDS011;8431;52.458;9.998;2023-04-03T01:34:17;2.55;;;1.40;;
16634;SDS011;8431;52.458;9.998;2023-04-03T01:36:45;3.13;;;1.45;;
16634;SDS011;8431;52.458;9.998;2023-04-03T01:39:12;5.13;;;1.40;;
16634;SDS011;8431;52.458;9.998;2023-04-03T01:41:40;4.20;;;1.50;;
16634;SDS011;8431;52.458;9.998;2023-04-03T01:44:07;3.00;;;1.40;;
16634;SDS011;8431;52.458;9.998;2023-04-03T01:46:34;5.15;;;1.50;;
16634;SDS011;8431;52.458;9.998;2023-04-03T01:49:04;3.50;;;1.20;;
16634;SDS011;8431;52.458;9.998;2023-04-03T01:51:32;3.67;;;1.85;;
16634;SDS011;8431;52.458;9.998;2023-04-03T01:53:59;5.03;;;1.83;;
16634;SDS011;8431;52.458;9.998;2023-04-03T01:56:26;3.80;;;1.67;;
16634;SDS011;8431;52.458;9.998;2023-04-03T01:58:53;5.43;;;1.38;;
16634;SDS011;8431;52.458;9.998;2023-04-03T02:01:20;5.25;;;1.30;;
16634;SDS011;8431;52.458;9.998;2023-04-03T02:03:47;4.65;;;1.55;;
16634;SDS011;8431;52.458;9.998;2023-04-03T02:06:16;2.45;;;1.65;;
16634;SDS011;8431;52.458;9.998;2023-04-03T02:08:43;5.47;;;1.60;;
16634;SDS011;8431;52.458;9.998;2023-04-03T02:11:10;1.88;;;1.08;;
16634;SDS011;8431;52.458;9.998;2023-04-03T02:13:37;6.35;;;1.48;;
16634;SDS011;8431;52.458;9.998;2023-04-03T02:16:07;3.40;;;1.33;;
16634;SDS011;8431;52.458;9.998;2023-04-03T02:18:36;3.88;;;1.40;;
16634;SDS011;8431;52.458;9.998;2023-04-03T02:21:03;4.13;;;1.45;;
16634;SDS011;8431;52.458;9.998;2023-04-03T02:23:32;3.25;;;1.40;;
16634;SDS011;8431;52.458;9.998;2023-04-03T02:26:05;1.77;;;1.10;;
16634;SDS011;8431;52.458;9.998;2023-04-03T02:28:33;4.28;;;1.30;;
16634;SDS011;8431;52.458;9.998;2023-04-03T02:31:00;2.88;;;1.25;;
16634;SDS011;8431;52.458;9.998;2023-04-03T02:33:28;3.28;;;1.15;;
16634;SDS011;8431;52.458;9.998;2023-04-03T02:35:55;4.55;;;1.38;;
16634;SDS011;8431;52.458;9.998;2023-04-03T02:38:23;1.80;;;1.13;;
16634;SDS011;8431;52.458;9.998;2023-04-03T02:40:52;3.45;;;1.20;;
16634;SDS011;8431;52.458;9.998;2023-04-03T02:43:19;5.55;;;1.30;;
16634;SDS011;8431;52.458;9.998;2023-04-03T02:45:46;2.50;;;1.27;;
16634;SDS011;8431;52.458;9.998;2023-04-03T02:48:13;2.35;;;1.23;;
16634;SDS011;8431;52.458;9.998;2023-04-03T02:50:41;3.40;;;1.45;;
16634;SDS011;8431;52.458;9.998;2023-04-03T02:53:09;4.57;;;1.42;;
16634;SDS011;8431;52.458;9.998;2023-04-03T02:55:35;2.75;;;1.60;;
16634;SDS011;8431;52.458;9.998;2023-04-03T02:58:04;5.78;;;1.50;;
16634;SDS011;8431;52.458;9.998;2023-04-03T03:00:31;3.60;;;1.42;;
16634;SDS011;8431;52.458;9.998;2023-04-03T03:02:58;3.08;;;1.30;;
16634;SDS011;8431;52.458;9.998;2023-04-03T03:05:25;5.95;;;1.48;;
16634;SDS011;8431;52.458;9.998;2023-04-03T03:07:52;5.70;;;1.25;;
16634;SDS011;8431;52.458;9.998;2023-04-03T03:10:19;2.90;;;1.27;;
16634;SDS011;8431;52.458;9.998;2023-04-03T03:12:47;3.75;;;1.92;;
16634;SDS011;8431;52.458;9.998;2023-04-03T03:15:16;3.28;;;1.42;;
16634;SDS011;8431;52.458;9.998;2023-04-03T03:17:44;8.63;;;1.80;;
16634;SDS011;8431;52.458;9.998;2023-04-03T03:20:12;5.70;;;1.38;;
16634;SDS011;8431;52.458;9.998;2023-04-03T03:22:40;3.05;;;1.50;;
16634;SDS011;8431;52.458;9.998;2023-04-03T03:25:08;4.45;;;1.20;;
16634;SDS011;8431;52.458;9.998;2023-04-03T03:27:35;3.08;;;1.45;;
16634;SDS011;8431;52.458;9.998;2023-04-03T03:30:02;4.30;;;1.30;;
16634;SDS011;8431;52.458;9.998;2023-04-03T03:32:32;3.95;;;1.17;;
16634;SDS011;8431;52.458;9.998;2023-04-03T03:34:59;2.15;;;1.35;;
16634;SDS011;8431;52.458;9.998;2023-04-03T03:37:26;5.88;;;1.30;;
16634;SDS011;8431;52.458;9.998;2023-04-03T03:39:53;4.53;;;1.80;;
16634;SDS011;8431;52.458;9.998;2023-04-03T03:42:20;4.15;;;1.17;;
16634;SDS011;8431;52.458;9.998;2023-04-03T03:44:47;1.25;;;1.15;;
16634;SDS011;8431;52.458;9.998;2023-04-03T03:47:14;6.15;;;1.60;;
16634;SDS011;8431;52.458;9.998;2023-04-03T03:49:43;7.22;;;1.80;;
16634;SDS011;8431;52.458;9.998;2023-04-03T03:52:10;6.68;;;1.40;;
16634;SDS011;8431;52.458;9.998;2023-04-03T03:54:37;4.28;;;1.40;;
16634;SDS011;8431;52.458;9.998;2023-04-03T03:57:04;5.75;;;1.67;;
16634;SDS011;8431;52.458;9.998;2023-04-03T03:59:31;3.80;;;1.33;;
16634;SDS011;8431;52.458;9.998;2023-04-03T04:01:58;2.55;;;1.30;;
16634;SDS011;8431;52.458;9.998;2023-04-03T04:04:25;5.03;;;1.30;;
16634;SDS011;8431;52.458;9.998;2023-04-03T04:06:53;2.47;;;1.30;;
16634;SDS011;8431;52.458;9.998;2023-04-03T04:09:20;4.88;;;1.02;;
16634;SDS011;8431;52.458;9.998;2023-04-03T04:11:47;2.45;;;1.77;;
16634;SDS011;8431;52.458;9.998;2023-04-03T04:14:14;3.25;;;1.30;;
16634;SDS011;8431;52.458;9.998;2023-04-03T04:16:41;2.10;;;1.52;;
16634;SDS011;8431;52.458;9.998;2023-04-03T04:19:08;4.82;;;1.80;;
16634;SDS011;8431;52.458;9.998;2023-04-03T04:21:35;5.20;;;1.30;;
16634;SDS011;8431;52.458;9.998;2023-04-03T04:24:04;7.90;;;1.75;;
16634;SDS011;8431;52.458;9.998;2023-04-03T04:26:32;5.72;;;1.40;;
16634;SDS011;8431;52.458;9.998;2023-04-03T04:28:59;4.85;;;1.70;;
16634;SDS011;8431;52.458;9.998;2023-04-03T04:31:26;4.10;;;1.40;;
16634;SDS011;8431;52.458;9.998;2023-04-03T04:33:53;3.15;;;1.60;;
16634;SDS011;8431;52.458;9.998;2023-04-03T04:36:20;6.45;;;1.35;;
16634;SDS011;8431;52.458;9.998;2023-04-03T04:38:47;5.43;;;1.67;;
16634;SDS011;8431;52.458;9.998;2023-04-03T04:41:19;4.63;;;1.50;;
16634;SDS011;8431;52.458;9.998;2023-04-03T04:43:47;5.43;;;1.73;;
16634;SDS011;8431;52.458;9.998;2023-04-03T04:46:14;5.55;;;1.40;;
16634;SDS011;8431;52.458;9.998;2023-04-03T04:48:42;4.63;;;1.65;;
16634;SDS011;8431;52.458;9.998;2023-04-03T04:51:09;4.20;;;1.85;;
16634;SDS011;8431;52.458;9.998;2023-04-03T04:53:36;6.13;;;1.90;;
16634;SDS011;8431;52.458;9.998;2023-04-03T04:56:04;2.90;;;1.80;;
16634;SDS011;8431;52.458;9.998;2023-04-03T04:58:32;3.33;;;1.67;;
16634;SDS011;8431;52.458;9.998;2023-04-03T05:01:00;4.97;;;1.95;;
16634;SDS011;8431;52.458;9.998;2023-04-03T05:03:27;3.53;;;1.70;;
16634;SDS011;8431;52.458;9.998;2023-04-03T05:05:54;5.47;;;1.67;;
16634;SDS011;8431;52.458;9.998;2023-04-03T05:08:21;4.45;;;1.60;;
16634;SDS011;8431;52.458;9.998;2023-04-03T05:10:48;4.32;;;1.50;;
16634;SDS011;8431;52.458;9.998;2023-04-03T05:13:15;12.45;;;1.77;;
16634;SDS011;8431;52.458;9.998;2023-04-03T05:15:44;4.45;;;1.63;;
16634;SDS011;8431;52.458;9.998;2023-04-03T05:18:11;4.88;;;1.58;;
16634;SDS011;8431;52.458;9.998;2023-04-03T05:20:38;6.85;;;1.48;;
16634;SDS011;8431;52.458;9.998;2023-04-03T05:23:05;4.45;;;1.55;;
16634;SDS011;8431;52.458;9.998;2023-04-03T05:25:32;2.95;;;1.50;;
16634;SDS011;8431;52.458;9.998;2023-04-03T05:27:59;5.53;;;1.40;;
16634;SDS011;8431;52.458;9.998;2023-04-03T05:30:26;5.45;;;1.73;;
16634;SDS011;8431;52.458;9.998;2023-04-03T05:32:54;6.28;;;1.88;;
16634;SDS011;8431;52.458;9.998;2023-04-03T05:35:21;5.13;;;1.90;;
16634;SDS011;8431;52.458;9.998;2023-04-03T05:37:48;5.80;;;1.70;;
16634;SDS011;8431;52.458;9.998;2023-04-03T05:40:15;5.60;;;2.28;;
16634;SDS011;8431;52.458;9.998;2023-04-03T05:42:43;2.80;;;1.00;;
16634;SDS011;8431;52.458;9.998;2023-04-03T05:45:10;3.15;;;1.45;;
16634;SDS011;8431;52.458;9.998;2023-04-03T05:47:37;7.15;;;1.95;;
16634;SDS011;8431;52.458;9.998;2023-04-03T05:50:06;4.03;;;1.23;;
16634;SDS011;8431;52.458;9.998;2023-04-03T05:52:35;4.00;;;1.40;;
16634;SDS011;8431;52.458;9.998;2023-04-03T05:55:04;4.43;;;1.80;;
16634;SDS011;8431;52.458;9.998;2023-04-03T05:57:32;2.80;;;1.67;;
16634;SDS011;8431;52.458;9.998;2023-04-03T05:59:59;4.07;;;1.80;;
16634;SDS011;8431;52.458;9.998;2023-04-03T06:02:27;3.38;;;1.58;;
16634;SDS011;8431;52.458;9.998;2023-04-03T06:04:54;4.15;;;1.50;;
16634;SDS011;8431;52.458;9.998;2023-04-03T06:07:23;4.38;;;1.65;;
16634;SDS011;8431;52.458;9.998;2023-04-03T06:09:53;4.28;;;1.45;;
16634;SDS011;8431;52.458;9.998;2023-04-03T06:12:22;2.40;;;1.30;;
16634;SDS011;8431;52.458;9.998;2023-04-03T06:14:49;4.53;;;1.65;;
16634;SDS011;8431;52.458;9.998;2023-04-03T06:17:16;3.13;;;1.48;;
16634;SDS011;8431;52.458;9.998;2023-04-03T06:19:43;5.43;;;1.55;;
16634;SDS011;8431;52.458;9.998;2023-04-03T06:22:10;4.95;;;1.65;;
16634;SDS011;8431;52.458;9.998;2023-04-03T06:24:39;4.53;;;1.50;;
16634;SDS011;8431;52.458;9.998;2023-04-03T06:27:06;2.28;;;1.63;;
16634;SDS011;8431;52.458;9.998;2023-04-03T06:29:33;5.25;;;1.40;;
16634;SDS011;8431;52.458;9.998;2023-04-03T06:32:00;2.72;;;1.52;;
16634;SDS011;8431;52.458;9.998;2023-04-03T06:34:27;4.55;;;1.70;;
16634;SDS011;8431;52.458;9.998;2023-04-03T06:36:54;4.03;;;1.52;;
16634;SDS011;8431;52.458;9.998;2023-04-03T06:39:21;3.20;;;1.17;;
16634;SDS011;8431;52.458;9.998;2023-04-03T06:41:50;3.17;;;1.50;;
16634;SDS011;8431;52.458;9.998;2023-04-03T06:44:17;4.97;;;1.40;;
16634;SDS011;8431;52.458;9.998;2023-04-03T06:46:44;4.40;;;1.67;;
16634;SDS011;8431;52.458;9.998;2023-04-03T06:49:11;5.10;;;2.25;;
16634;SDS011;8431;52.458;9.998;2023-04-03T06:51:40;2.60;;;1.63;;
16634;SDS011;8431;52.458;9.998;2023-04-03T06:54:06;4.70;;;1.52;;
16634;SDS011;8431;52.458;9.998;2023-04-03T06:56:34;5.22;;;1.80;;
16634;SDS011;8431;52.458;9.998;2023-04-03T06:59:02;3.60;;;1.85;;
16634;SDS011;8431;52.458;9.998;2023-04-03T07:01:29;1.77;;;1.30;;
16634;SDS011;8431;52.458;9.998;2023-04-03T07:03:56;4.32;;;1.90;;
16634;SDS011;8431;52.458;9.998;2023-04-03T07:06:23;3.17;;;1.80;;
16634;SDS011;8431;52.458;9.998;2023-04-03T07:08:52;3.55;;;1.92;;
16634;SDS011;8431;52.458;9.998;2023-04-03T07:11:20;3.63;;;1.50;;
16634;SDS011;8431;52.458;9.998;2023-04-03T07:13:47;3.22;;;1.30;;
16634;SDS011;8431;52.458;9.998;2023-04-03T07:16:15;4.50;;;1.38;;
16634;SDS011;8431;52.458;9.998;2023-04-03T07:18:43;3.92;;;1.48;;
16634;SDS011;8431;52.458;9.998;2023-04-03T07:21:10;2.58;;;1.58;;
16634;SDS011;8431;52.458;9.998;2023-04-03T07:23:37;2.60;;;1.17;;
16634;SDS011;8431;52.458;9.998;2023-04-03T07:26:04;6.55;;;1.30;;
16634;SDS011;8431;52.458;9.998;2023-04-03T07:28:31;3.40;;;1.60;;
16634;SDS011;8431;52.458;9.998;2023-04-03T07:31:00;3.80;;;1.45;;
16634;SDS011;8431;52.458;9.998;2023-04-03T07:33:30;5.63;;;1.05;;
16634;SDS011;8431;52.458;9.998;2023-04-03T07:35:57;3.55;;;1.45;;
16634;SDS011;8431;52.458;9.998;2023-04-03T07:38:25;2.60;;;1.13;;
16634;SDS011;8431;52.458;9.998;2023-04-03T07:40:52;2.22;;;0.90;;
16634;SDS011;8431;52.458;9.998;2023-04-03T07:43:21;5.00;;;1.30;;
16634;SDS011;8431;52.458;9.998;2023-04-03T07:45:49;2.97;;;1.42;;
16634;SDS011;8431;52.458;9.998;2023-04-03T07:48:17;5.47;;;1.05;;
16634;SDS011;8431;52.458;9.998;2023-04-03T07:50:58;1.58;;;1.02;;
16634;SDS011;8431;52.458;9.998;2023-04-03T07:53:26;3.33;;;0.98;;
16634;SDS011;8431;52.458;9.998;2023-04-03T07:55:53;1.67;;;1.10;;
16634;SDS011;8431;52.458;9.998;2023-04-03T07:58:23;3.47;;;1.27;;
16634;SDS011;8431;52.458;9.998;2023-04-03T08:00:50;3.22;;;1.30;;
16634;SDS011;8431;52.458;9.998;2023-04-03T08:03:18;6.20;;;1.58;;
16634;SDS011;8431;52.458;9.998;2023-04-03T08:05:46;3.03;;;1.15;;
16634;SDS011;8431;52.458;9.998;2023-04-03T08:08:16;3.90;;;1.15;;
16634;SDS011;8431;52.458;9.998;2023-04-03T08:10:47;5.40;;;1.55;;
16634;SDS011;8431;52.458;9.998;2023-04-03T08:13:16;6.93;;;1.42;;
16634;SDS011;8431;52.458;9.998;2023-04-03T08:15:43;5.55;;;1.17;;
16634;SDS011;8431;52.458;9.998;2023-04-03T08:18:10;4.18;;;1.30;;
16634;SDS011;8431;52.458;9.998;2023-04-03T08:20:37;2.92;;;1.20;;
16634;SDS011;8431;52.458;9.998;2023-04-03T08:23:05;4.55;;;1.00;;
16634;SDS011;8431;52.458;9.998;2023-04-03T08:25:38;2.72;;;1.10;;
16634;SDS011;8431;52.458;9.998;2023-04-03T08:28:06;2.15;;;0.95;;
16634;SDS011;8431;52.458;9.998;2023-04-03T08:30:33;3.72;;;1.48;;
16634;SDS011;8431;52.458;9.998;2023-04-03T08:33:01;4.30;;;1.27;;
16634;SDS011;8431;52.458;9.998;2023-04-03T08:35:28;2.83;;;1.30;;
16634;SDS011;8431;52.458;9.998;2023-04-03T08:37:55;3.38;;;1.02;;
16634;SDS011;8431;52.458;9.998;2023-04-03T08:40:22;2.67;;;0.80;;
16634;SDS011;8431;52.458;9.998;2023-04-03T08:42:53;3.97;;;1.30;;
16634;SDS011;8431;52.458;9.998;2023-04-03T08:45:32;4.18;;;1.10;;
16634;SDS011;8431;52.458;9.998;2023-04-03T08:48:11;1.52;;;0.93;;
16634;SDS011;8431;52.458;9.998;2023-04-03T08:50:42;3.75;;;1.10;;
16634;SDS011;8431;52.458;9.998;2023-04-03T08:53:14;4.03;;;1.45;;
16634;SDS011;8431;52.458;9.998;2023-04-03T08:55:43;1.38;;;0.70;;
16634;SDS011;8431;52.458;9.998;2023-04-03T08:58:14;1.05;;;0.80;;
16634;SDS011;8431;52.458;9.998;2023-04-03T09:00:44;4.70;;;0.98;;
16634;SDS011;8431;52.458;9.998;2023-04-03T09:03:15;3.47;;;1.00;;
16634;SDS011;8431;52.458;9.998;2023-04-03T09:05:45;4.43;;;1.15;;
16634;SDS011;8431;52.458;9.998;2023-04-03T09:08:23;2.28;;;0.88;;
16634;SDS011;8431;52.458;9.998;2023-04-03T09:10:58;2.20;;;0.98;;
16634;SDS011;8431;52.458;9.998;2023-04-03T09:13:35;1.75;;;0.90;;
16634;SDS011;8431;52.458;9.998;2023-04-03T09:16:14;2.47;;;1.05;;
16634;SDS011;8431;52.458;9.998;2023-04-03T09:18:48;1.55;;;1.02;;
16634;SDS011;8431;52.458;9.998;2023-04-03T09:21:32;4.57;;;1.42;;
16634;SDS011;8431;52.458;9.998;2023-04-03T09:24:04;2.22;;;0.82;;
16634;SDS011;8431;52.458;9.998;2023-04-03T09:26:33;1.65;;;0.73;;
16634;SDS011;8431;52.458;9.998;2023-04-03T09:29:17;4.75;;;1.27;;
16634;SDS011;8431;52.458;9.998;2023-04-03T09:31:47;1.50;;;0.80;;
16634;SDS011;8431;52.458;9.998;2023-04-03T09:34:17;1.77;;;0.60;;
16634;SDS011;8431;52.458;9.998;2023-04-03T09:36:50;1.08;;;0.80;;
16634;SDS011;8431;52.458;9.998;2023-04-03T09:39:19;2.13;;;0.85;;
16634;SDS011;8431;52.458;9.998;2023-04-03T09:44:42;2.35;;;0.95;;
16634;SDS011;8431;52.458;9.998;2023-04-03T09:47:23;2.13;;;0.80;;
16634;SDS011;8431;52.458;9.998;2023-04-03T09:50:19;2.28;;;0.57;;
16634;SDS011;8431;52.458;9.998;2023-04-03T09:52:49;4.22;;;0.90;;
16634;SDS011;8431;52.458;9.998;2023-04-03T09:55:19;2.10;;;0.90;;
16634;SDS011;8431;52.458;9.998;2023-04-03T09:57:52;3.50;;;0.98;;
16634;SDS011;8431;52.458;9.998;2023-04-03T10:00:25;0.95;;;0.88;;
16634;SDS011;8431;52.458;9.998;2023-04-03T10:02:54;1.25;;;0.85;;
16634;SDS011;8431;52.458;9.998;2023-04-03T10:05:26;4.57;;;1.30;;
16634;SDS011;8431;52.458;9.998;2023-04-03T10:08:20;1.52;;;1.38;;
16634;SDS011;8431;52.458;9.998;2023-04-03T10:11:04;2.38;;;1.38;;
16634;SDS011;8431;52.458;9.998;2023-04-03T10:13:35;1.42;;;0.77;;
16634;SDS011;8431;52.458;9.998;2023-04-03T10:16:06;1.92;;;0.80;;
16634;SDS011;8431;52.458;9.998;2023-04-03T10:18:39;2.90;;;1.35;;
16634;SDS011;8431;52.458;9.998;2023-04-03T10:21:10;3.75;;;0.93;;
16634;SDS011;8431;52.458;9.998;2023-04-03T10:23:42;3.15;;;1.00;;
16634;SDS011;8431;52.458;9.998;2023-04-03T10:26:15;0.70;;;0.70;;
16634;SDS011;8431;52.458;9.998;2023-04-03T10:28:52;3.05;;;1.02;;
16634;SDS011;8431;52.458;9.998;2023-04-03T10:31:29;1.10;;;0.93;;
16634;SDS011;8431;52.458;9.998;2023-04-03T10:34:05;2.35;;;0.82;;
16634;SDS011;8431;52.458;9.998;2023-04-03T10:36:42;2.40;;;1.05;;
16634;SDS011;8431;52.458;9.998;2023-04-03T10:39:17;2.13;;;1.00;;
16634;SDS011;8431;52.458;9.998;2023-04-03T10:41:57;1.65;;;1.00;;
16634;SDS011;8431;52.458;9.998;2023-04-03T10:44:30;4.15;;;0.80;;
16634;SDS011;8431;52.458;9.998;2023-04-03T10:47:09;1.40;;;0.85;;
16634;SDS011;8431;52.458;9.998;2023-04-03T10:49:45;1.67;;;0.90;;
16634;SDS011;8431;52.458;9.998;2023-04-03T10:52:20;2.65;;;1.10;;
16634;SDS011;8431;52.458;9.998;2023-04-03T10:54:54;3.08;;;0.77;;
16634;SDS011;8431;52.458;9.998;2023-04-03T10:57:28;2.63;;;0.82;;
16634;SDS011;8431;52.458;9.998;2023-04-03T11:00:06;4.20;;;1.15;;
16634;SDS011;8431;52.458;9.998;2023-04-03T11:02:45;0.85;;;0.63;;
16634;SDS011;8431;52.458;9.998;2023-04-03T11:05:18;1.15;;;0.77;;
16634;SDS011;8431;52.458;9.998;2023-04-03T11:07:53;2.35;;;0.90;;
16634;SDS011;8431;52.458;9.998;2023-04-03T11:10:24;1.30;;;0.80;;
16634;SDS011;8431;52.458;9.998;2023-04-03T11:12:58;1.95;;;0.95;;
16634;SDS011;8431;52.458;9.998;2023-04-03T11:15:33;2.88;;;1.20;;
16634;SDS011;8431;52.458;9.998;2023-04-03T11:18:02;0.95;;;0.80;;
16634;SDS011;8431;52.458;9.998;2023-04-03T11:20:33;3.63;;;0.90;;
16634;SDS011;8431;52.458;9.998;2023-04-03T11:23:03;0.80;;;0.80;;
16634;SDS011;8431;52.458;9.998;2023-04-03T11:25:33;1.40;;;0.70;;
16634;SDS011;8431;52.458;9.998;2023-04-03T11:28:03;0.80;;;0.73;;
16634;SDS011;8431;52.458;9.998;2023-04-03T11:30:32;0.50;;;0.50;;
16634;SDS011;8431;52.458;9.998;2023-04-03T11:33:27;1.35;;;1.13;;
16634;SDS011;8431;52.458;9.998;2023-04-03T11:36:03;1.58;;;0.85;;
16634;SDS011;8431;52.458;9.998;2023-04-03T11:38:36;2.58;;;0.95;;
16634;SDS011;8431;52.458;9.998;2023-04-03T11:41:08;1.15;;;0.95;;
16634;SDS011;8431;52.458;9.998;2023-04-03T11:43:39;2.10;;;1.23;;
16634;SDS011;8431;52.458;9.998;2023-04-03T11:46:08;0.90;;;0.65;;
16634;SDS011;8431;52.458;9.998;2023-04-03T11:48:45;1.15;;;0.70;;
16634;SDS011;8431;52.458;9.998;2023-04-03T12:09:35;3.58;;;1.33;;
16634;SDS011;8431;52.458;9.998;2023-04-03T12:12:28;3.95;;;1.10;;
16634;SDS011;8431;52.458;9.998;2023-04-03T12:15:11;2.65;;;1.20;;
16634;SDS011;8431;52.458;9.998;2023-04-03T12:17:45;1.52;;;1.23;;
16634;SDS011;8431;52.458;9.998;2023-04-03T12:23:31;0.98;;;0.93;;
16634;SDS011;8431;52.458;9.998;2023-04-03T12:26:01;1.65;;;0.90;;
16634;SDS011;8431;52.458;9.998;2023-04-03T12:28:46;1.67;;;0.75;;
16634;SDS011;8431;52.458;9.998;2023-04-03T12:31:17;2.70;;;0.80;;
16634;SDS011;8431;52.458;9.998;2023-04-03T12:33:50;1.88;;;1.30;;
16634;SDS011;8431;52.458;9.998;2023-04-03T12:36:38;2.47;;;0.93;;
16634;SDS011;8431;52.458;9.998;2023-04-03T12:42:02;2.28;;;1.27;;
16634;SDS011;8431;52.458;9.998;2023-04-03T12:44:40;1.50;;;1.00;;
16634;SDS011;8431;52.458;9.998;2023-04-03T12:47:22;5.47;;;0.90;;
16634;SDS011;8431;52.458;9.998;2023-04-03T12:49:52;1.10;;;0.95;;
16634;SDS011;8431;52.458;9.998;2023-04-03T12:52:23;0.95;;;0.90;;
16634;SDS011;8431;52.458;9.998;2023-04-03T12:54:59;3.47;;;0.80;;
16634;SDS011;8431;52.458;9.998;2023-04-03T12:57:29;2.70;;;1.20;;
16634;SDS011;8431;52.458;9.998;2023-04-03T12:59:57;1.80;;;0.80;;
16634;SDS011;8431;52.458;9.998;2023-04-03T13:02:25;1.98;;;1.23;;
16634;SDS011;8431;52.458;9.998;2023-04-03T13:04:55;1.73;;;0.70;;
16634;SDS011;8431;52.458;9.998;2023-04-03T13:07:26;2.10;;;0.98;;
16634;SDS011;8431;52.458;9.998;2023-04-03T13:12:45;1.83;;;1.00;;
16634;SDS011;8431;52.458;9.998;2023-04-03T13:15:14;1.77;;;1.15;;
16634;SDS011;8431;52.458;9.998;2023-04-03T13:17:44;2.25;;;0.95;;
16634;SDS011;8431;52.458;9.998;2023-04-03T13:20:16;2.13;;;1.05;;
16634;SDS011;8431;52.458;9.998;2023-04-03T13:22:48;4.00;;;0.90;;
16634;SDS011;8431;52.458;9.998;2023-04-03T13:25:20;1.45;;;0.90;;
16634;SDS011;8431;52.458;9.998;2023-04-03T13:27:49;1.25;;;1.00;;
16634;SDS011;8431;52.458;9.998;2023-04-03T13:30:20;1.08;;;0.82;;
16634;SDS011;8431;52.458;9.998;2023-04-03T13:32:52;1.10;;;0.65;;
16634;SDS011;8431;52.458;9.998;2023-04-03T13:35:35;1.35;;;0.90;;
16634;SDS011;8431;52.458;9.998;2023-04-03T13:38:07;0.98;;;0.93;;
16634;SDS011;8431;52.458;9.998;2023-04-03T13:40:50;1.80;;;0.98;;
16634;SDS011;8431;52.458;9.998;2023-04-03T13:43:18;2.60;;;1.00;;
16634;SDS011;8431;52.458;9.998;2023-04-03T13:45:55;2.10;;;1.00;;
16634;SDS011;8431;52.458;9.998;2023-04-03T13:48:24;1.52;;;0.80;;
16634;SDS011;8431;52.458;9.998;2023-04-03T13:50:57;2.15;;;1.02;;
16634;SDS011;8431;52.458;9.998;2023-04-03T13:53:26;1.85;;;0.80;;
16634;SDS011;8431;52.458;9.998;2023-04-03T13:55:58;3.75;;;1.10;;
16634;SDS011;8431;52.458;9.998;2023-04-03T14:01:53;2.35;;;1.23;;
16634;SDS011;8431;52.458;9.998;2023-04-03T14:04:32;1.05;;;0.80;;
16634;SDS011;8431;52.458;9.998;2023-04-03T14:07:11;1.25;;;1.13;;
16634;SDS011;8431;52.458;9.998;2023-04-03T14:09:38;2.80;;;0.82;;
16634;SDS011;8431;52.458;9.998;2023-04-03T14:12:08;1.08;;;0.98;;
16634;SDS011;8431;52.458;9.998;2023-04-03T14:14:41;1.73;;;1.10;;
16634;SDS011;8431;52.458;9.998;2023-04-03T14:17:14;1.60;;;0.95;;
16634;SDS011;8431;52.458;9.998;2023-04-03T14:19:42;1.95;;;0.82;;
16634;SDS011;8431;52.458;9.998;2023-04-03T14:22:12;3.03;;;1.13;;
16634;SDS011;8431;52.458;9.998;2023-04-03T14:24:41;1.88;;;1.00;;
16634;SDS011;8431;52.458;9.998;2023-04-03T14:27:13;1.65;;;1.10;;
16634;SDS011;8431;52.458;9.998;2023-04-03T14:29:43;2.30;;;1.00;;
16634;SDS011;8431;52.458;9.998;2023-04-03T14:32:14;2.33;;;1.10;;
16634;SDS011;8431;52.458;9.998;2023-04-03T14:34:42;0.90;;;0.90;;
16634;SDS011;8431;52.458;9.998;2023-04-03T14:37:11;0.93;;;0.93;;
16634;SDS011;8431;52.458;9.998;2023-04-03T14:39:41;1.88;;;0.95;;
16634;SDS011;8431;52.458;9.998;2023-04-03T14:42:13;1.73;;;1.13;;
16634;SDS011;8431;52.458;9.998;2023-04-03T14:44:42;4.15;;;0.98;;
16634;SDS011;8431;52.458;9.998;2023-04-03T14:47:10;1.35;;;0.88;;
16634;SDS011;8431;52.458;9.998;2023-04-03T14:49:38;1.63;;;0.90;;
16634;SDS011;8431;52.458;9.998;2023-04-03T14:52:05;2.72;;;1.00;;
16634;SDS011;8431;52.458;9.998;2023-04-03T14:54:32;3.17;;;0.98;;
16634;SDS011;8431;52.458;9.998;2023-04-03T14:56:59;1.20;;;0.93;;
16634;SDS011;8431;52.458;9.998;2023-04-03T14:59:28;1.08;;;0.90;;
16634;SDS011;8431;52.458;9.998;2023-04-03T15:01:58;3.35;;;1.02;;
16634;SDS011;8431;52.458;9.998;2023-04-03T15:04:26;5.10;;;1.40;;
16634;SDS011;8431;52.458;9.998;2023-04-03T15:06:53;0.82;;;0.80;;
16634;SDS011;8431;52.458;9.998;2023-04-03T15:09:20;3.97;;;1.30;;
16634;SDS011;8431;52.458;9.998;2023-04-03T15:11:48;1.55;;;1.10;;
16634;SDS011;8431;52.458;9.998;2023-04-03T15:14:17;1.27;;;0.98;;
16634;SDS011;8431;52.458;9.998;2023-04-03T15:16:46;1.88;;;1.08;;
16634;SDS011;8431;52.458;9.998;2023-04-03T15:19:13;2.25;;;0.90;;
16634;SDS011;8431;52.458;9.998;2023-04-03T15:21:40;1.33;;;1.20;;
16634;SDS011;8431;52.458;9.998;2023-04-03T15:24:08;1.48;;;1.13;;
16634;SDS011;8431;52.458;9.998;2023-04-03T15:26:36;1.38;;;0.80;;
16634;SDS011;8431;52.458;9.998;2023-04-03T15:29:03;0.88;;;0.88;;
16634;SDS011;8431;52.458;9.998;2023-04-03T15:31:31;1.52;;;0.75;;
16634;SDS011;8431;52.458;9.998;2023-04-03T15:34:00;2.63;;;1.10;;
16634;SDS011;8431;52.458;9.998;2023-04-03T15:36:28;2.33;;;1.05;;
16634;SDS011;8431;52.458;9.998;2023-04-03T15:38:55;0.90;;;0.90;;
16634;SDS011;8431;52.458;9.998;2023-04-03T15:41:22;1.60;;;1.00;;
16634;SDS011;8431;52.458;9.998;2023-04-03T15:43:49;2.08;;;1.35;;
16634;SDS011;8431;52.458;9.998;2023-04-03T15:46:19;1.13;;;0.90;;
16634;SDS011;8431;52.458;9.998;2023-04-03T15:48:47;4.13;;;0.90;;
16634;SDS011;8431;52.458;9.998;2023-04-03T15:51:16;1.85;;;1.35;;
16634;SDS011;8431;52.458;9.998;2023-04-03T15:53:43;1.02;;;0.93;;